Time;durP1;ratioP1;P1;durP2;ratioP2;P2;SDS_P1;SDS_P2;PMS_P1;PMS_P2;Temp;Humidity;BMP_temperature;BMP_pressure;BME280_temperature;BME280_humidity;BME280_pressure;Samples;Min_cycle;Max_cycle;Signal;HPM_P1;HPM_P2
2023/12/11 07:39:17;;;;;;;23.70;14.07;;;4.60;99.90;;;;;;5126183;27;20280;-60
2023/12/11 07:41:45;;;;;;;22.20;12.07;;;5.00;99.90;;;;;;5118328;28;20205;-61
2023/12/11 07:44:15;;;;;;;20.87;13.63;;;5.20;99.90;;;;;;5107095;28;20217;-60
2023/12/11 07:46:43;;;;;;;18.07;12.70;;;5.20;99.90;;;;;;5107292;28;20196;-60
2023/12/11 07:49:13;;;;;;;17.43;12.53;;;5.30;99.90;;;;;;5114830;28;20987;-61
2023/12/11 07:51:43;;;;;;;18.53;12.37;;;5.50;99.90;;;;;;5127500;27;20195;-61
2023/12/11 07:54:13;;;;;;;22.50;13.73;;;5.70;99.90;;;;;;5127102;27;20191;-61
2023/12/11 07:56:43;;;;;;;18.57;12.90;;;5.70;99.90;;;;;;5127513;27;20654;-61
2023/12/11 07:59:12;;;;;;;20.37;12.00;;;5.80;99.90;;;;;;5126934;27;20256;-60
2023/12/11 08:01:40;;;;;;;19.53;12.47;;;5.90;99.90;;;;;;5127452;27;20217;-61
2023/12/11 08:04:09;;;;;;;18.10;12.83;;;5.70;99.90;;;;;;5127307;27;20195;-60
2023/12/11 08:06:41;;;;;;;21.17;13.20;;;5.60;99.90;;;;;;5127121;27;20198;-60
2023/12/11 08:09:11;;;;;;;20.33;13.20;;;5.70;99.90;;;;;;5126567;27;20213;-61
2023/12/11 08:11:39;;;;;;;30.57;17.70;;;5.70;99.90;;;;;;5126755;28;20580;-58
2023/12/11 08:14:09;;;;;;;22.80;14.30;;;5.90;99.90;;;;;;5126428;27;20750;-59
2023/12/11 08:16:38;;;;;;;30.43;16.63;;;6.10;99.90;;;;;;5126706;28;20191;-60
2023/12/11 08:19:07;;;;;;;41.83;25.10;;;6.20;99.90;;;;;;5126426;28;20219;-60
2023/12/11 08:21:35;;;;;;;27.87;18.40;;;6.30;99.90;;;;;;5126553;27;20211;-60
2023/12/11 08:24:05;;;;;;;29.23;18.00;;;6.40;99.90;;;;;;5126128;27;20209;-61
2023/12/11 08:26:34;;;;;;;37.30;23.07;;;6.40;99.90;;;;;;5126624;27;20300;-60
2023/12/11 08:29:02;;;;;;;39.97;24.53;;;6.50;99.90;;;;;;5126520;27;20207;-61
2023/12/11 08:31:32;;;;;;;26.63;15.30;;;6.40;99.90;;;;;;5126344;27;20214;-60
2023/12/11 08:34:01;;;;;;;28.40;19.43;;;6.20;99.90;;;;;;5126428;27;20692;-60
2023/12/11 08:36:30;;;;;;;25.03;17.53;;;6.30;99.90;;;;;;5126453;27;20191;-60
2023/12/11 08:38:58;;;;;;;29.40;20.97;;;6.50;99.90;;;;;;5125341;27;20247;-60
2023/12/11 08:41:27;;;;;;;26.60;17.13;;;6.50;99.90;;;;;;5126078;28;20197;-61
2023/12/11 08:43:56;;;;;;;23.93;14.87;;;6.30;99.90;;;;;;5126142;27;20191;-60
2023/12/11 08:46:25;;;;;;;27.93;19.13;;;6.20;99.90;;;;;;5126243;27;20227;-59
2023/12/11 08:48:55;;;;;;;22.47;16.30;;;6.40;99.90;;;;;;5121932;27;20198;-59
2023/12/11 08:51:23;;;;;;;27.13;17.20;;;6.60;99.90;;;;;;5112395;28;20208;-62
2023/12/11 08:53:52;;;;;;;26.10;16.67;;;6.50;99.90;;;;;;5112008;28;20200;-61
2023/12/11 08:56:21;;;;;;;28.27;18.60;;;6.60;99.90;;;;;;5112311;28;20202;-61
2023/12/11 08:58:50;;;;;;;25.57;17.13;;;6.70;99.90;;;;;;5112259;28;20231;-60
2023/12/11 09:01:19;;;;;;;31.77;19.60;;;6.70;99.90;;;;;;5112097;28;20758;-61
2023/12/11 09:03:48;;;;;;;31.67;19.30;;;6.80;99.90;;;;;;5112267;28;20947;-61
2023/12/11 09:06:18;;;;;;;27.77;19.23;;;6.80;99.90;;;;;;5111923;27;20192;-59
2023/12/11 09:08:47;;;;;;;41.17;24.77;;;6.80;99.90;;;;;;5111982;28;20203;-60
2023/12/11 09:11:15;;;;;;;27.90;16.87;;;6.80;99.90;;;;;;5112005;28;20207;-59
2023/12/11 09:13:44;;;;;;;50.30;31.53;;;6.70;99.90;;;;;;5111906;28;20192;-59
2023/12/11 09:16:12;;;;;;;47.27;28.40;;;6.60;99.90;;;;;;5112198;28;20200;-60
2023/12/11 09:18:41;;;;;;;59.70;36.27;;;6.60;99.90;;;;;;5111851;28;20211;-61
2023/12/11 09:21:10;;;;;;;46.00;30.03;;;6.70;99.90;;;;;;5111348;28;20227;-60
2023/12/11 09:23:40;;;;;;;50.77;32.10;;;6.70;99.90;;;;;;5111882;28;20208;-60
2023/12/11 09:26:08;;;;;;;39.37;24.67;;;6.80;99.90;;;;;;5112190;28;20559;-60
2023/12/11 09:28:39;;;;;;;44.00;29.57;;;6.70;99.90;;;;;;5111757;28;20568;-60
2023/12/11 09:31:12;;;;;;;50.80;33.17;;;6.80;99.90;;;;;;5111758;28;20278;-60
2023/12/11 09:33:40;;;;;;;95.70;53.03;;;6.80;99.90;;;;;;5111916;28;20192;-59
2023/12/11 09:36:09;;;;;;;123.43;70.57;;;6.90;99.90;;;;;;5111101;28;20577;-60
2023/12/11 09:38:39;;;;;;;186.90;107.90;;;6.90;99.90;;;;;;5111267;28;20239;-59
2023/12/11 09:41:08;;;;;;;193.63;108.67;;;6.90;99.90;;;;;;5111520;28;20241;-60
2023/12/11 09:43:37;;;;;;;182.57;103.67;;;7.00;99.90;;;;;;5111758;28;20187;-61
2023/12/11 09:46:09;;;;;;;210.20;108.23;;;6.90;99.90;;;;;;5111808;28;20208;-60
2023/12/11 09:48:37;;;;;;;195.73;102.40;;;7.00;99.90;;;;;;5111475;28;20242;-59
2023/12/11 09:51:06;;;;;;;188.90;103.30;;;7.00;99.90;;;;;;5110955;28;20204;-60
2023/12/11 09:53:36;;;;;;;145.03;80.37;;;7.00;99.90;;;;;;5111585;28;20681;-61
2023/12/11 09:56:07;;;;;;;134.10;71.33;;;7.00;99.90;;;;;;5111493;27;20571;-60
2023/12/11 09:58:36;;;;;;;86.77;48.40;;;7.00;99.90;;;;;;5111216;28;20273;-60
2023/12/11 10:01:06;;;;;;;83.23;50.03;;;7.00;99.90;;;;;;5110328;28;20202;-60
2023/12/11 10:03:35;;;;;;;79.87;45.93;;;7.00;99.90;;;;;;5111278;28;20699;-61
2023/12/11 10:06:04;;;;;;;88.07;49.97;;;7.00;99.90;;;;;;5110888;28;20223;-61
2023/12/11 10:08:41;;;;;;;93.63;50.97;;;7.10;99.90;;;;;;5110935;28;20204;-60
2023/12/11 10:11:12;;;;;;;100.10;51.00;;;7.10;99.90;;;;;;5111145;28;20191;-60
2023/12/11 10:13:41;;;;;;;85.73;47.00;;;7.10;99.90;;;;;;5110601;28;20280;-61
2023/12/11 10:16:27;;;;;;;87.87;47.83;;;7.10;99.90;;;;;;5110917;28;20198;-60
2023/12/11 10:18:56;;;;;;;81.07;44.63;;;7.10;99.90;;;;;;5110217;27;20215;-60
2023/12/11 10:21:25;;;;;;;82.53;45.97;;;7.10;99.90;;;;;;5110746;27;20195;-60
2023/12/11 10:24:04;;;;;;;72.40;41.23;;;7.10;99.90;;;;;;5110858;28;20573;-60
2023/12/11 10:26:38;;;;;;;57.97;34.20;;;7.10;99.90;;;;;;5110398;28;20199;-60
2023/12/11 10:29:18;;;;;;;63.37;37.57;;;7.20;99.90;;;;;;5110512;28;20207;-60
2023/12/11 10:31:47;;;;;;;67.33;39.23;;;7.10;99.90;;;;;;5110484;28;20250;-59
2023/12/11 10:34:16;;;;;;;71.53;40.23;;;7.10;99.90;;;;;;5109942;28;20667;-60
2023/12/11 10:36:51;;;;;;;66.07;38.00;;;7.10;99.90;;;;;;5110226;28;20270;-60
2023/12/11 10:39:21;;;;;;;61.97;35.83;;;7.10;99.90;;;;;;5110220;28;20240;-60
2023/12/11 10:41:52;;;;;;;60.00;34.40;;;7.10;99.90;;;;;;5110170;28;20196;-59
2023/12/11 10:44:26;;;;;;;58.73;32.63;;;7.20;99.90;;;;;;5110314;28;20208;-60
2023/12/11 10:47:06;;;;;;;41.10;26.93;;;7.30;99.90;;;;;;5110277;28;20196;-60
2023/12/11 10:49:35;;;;;;;40.77;27.17;;;7.30;99.90;;;;;;5109678;28;20195;-59
2023/12/11 10:52:05;;;;;;;43.20;29.23;;;7.30;99.90;;;;;;5110381;28;20187;-59
2023/12/11 10:54:37;;;;;;;53.10;33.97;;;7.30;99.90;;;;;;5110559;28;20563;-60
2023/12/11 10:57:13;;;;;;;63.30;38.37;;;7.40;99.90;;;;;;5110341;28;20204;-59
2023/12/11 10:59:41;;;;;;;75.77;45.50;;;7.40;99.90;;;;;;5110044;28;20219;-59
2023/12/11 11:02:13;;;;;;;67.00;44.40;;;7.50;99.90;;;;;;5109833;28;20215;-59
2023/12/11 11:04:44;;;;;;;69.93;45.07;;;7.50;99.90;;;;;;5110414;28;20188;-60
2023/12/11 11:07:18;;;;;;;76.60;48.27;;;7.50;99.90;;;;;;5110564;28;20211;-60
2023/12/11 11:09:55;;;;;;;77.23;44.67;;;7.50;99.90;;;;;;5110571;28;20711;-60
2023/12/11 11:12:36;;;;;;;74.60;45.33;;;7.50;99.90;;;;;;5110103;28;20227;-59
2023/12/11 11:15:08;;;;;;;80.27;48.33;;;7.50;99.90;;;;;;5109999;28;20195;-59
2023/12/11 11:18:02;;;;;;;91.03;53.17;;;7.50;99.90;;;;;;5109809;28;20535;-60
2023/12/11 11:20:32;;;;;;;91.20;53.10;;;7.40;99.90;;;;;;5109769;28;20768;-60
2023/12/11 11:23:26;;;;;;;93.33;54.20;;;7.40;99.90;;;;;;5100516;28;20200;-60
2023/12/11 11:25:55;;;;;;;110.30;64.43;;;7.50;99.90;;;;;;5091258;28;20211;-60
2023/12/11 11:28:41;;;;;;;89.87;53.50;;;7.50;99.90;;;;;;5102423;28;20220;-60
2023/12/11 11:31:11;;;;;;;87.30;53.60;;;7.50;99.90;;;;;;5106457;28;20208;-60
2023/12/11 11:33:49;;;;;;;82.53;50.77;;;7.60;99.90;;;;;;5109504;28;20611;-60
2023/12/11 11:36:19;;;;;;;51.90;35.30;;;7.50;99.90;;;;;;5109944;28;20252;-60
2023/12/11 11:38:58;;;;;;;44.30;30.40;;;7.50;99.90;;;;;;5109455;28;20319;-59
2023/12/11 11:41:28;;;;;;;47.13;30.60;;;7.50;99.90;;;;;;5109849;28;20185;-61
2023/12/11 11:44:05;;;;;;;54.27;32.30;;;7.60;99.90;;;;;;5109460;28;20609;-60
2023/12/11 11:46:53;;;;;;;58.93;35.47;;;7.60;99.90;;;;;;5109630;28;20251;-59
2023/12/11 11:49:31;;;;;;;41.50;28.53;;;7.60;99.90;;;;;;5109614;28;20257;-61
2023/12/11 11:52:00;;;;;;;55.13;32.17;;;7.60;99.90;;;;;;5109767;28;20200;-61
2023/12/11 11:54:30;;;;;;;43.33;27.43;;;7.70;99.90;;;;;;5109711;28;20209;-61
2023/12/11 11:56:59;;;;;;;54.47;32.83;;;7.70;99.90;;;;;;5109738;28;20193;-62
2023/12/11 11:59:29;;;;;;;51.43;30.30;;;7.70;99.90;;;;;;5109249;28;20262;-61
2023/12/11 12:01:59;;;;;;;58.63;30.27;;;7.60;99.90;;;;;;5109044;28;20210;-61
2023/12/11 12:04:33;;;;;;;74.43;44.70;;;7.60;99.90;;;;;;5109536;28;20189;-61
2023/12/11 12:07:03;;;;;;;39.70;25.50;;;7.60;99.90;;;;;;5101804;28;21055;-62
2023/12/11 12:09:32;;;;;;;45.13;27.20;;;7.60;99.90;;;;;;5090089;28;20767;-61
2023/12/11 12:12:01;;;;;;;54.97;36.27;;;7.70;99.90;;;;;;5108655;28;20291;-61
2023/12/11 12:14:31;;;;;;;48.57;32.70;;;7.70;99.90;;;;;;5107949;28;20197;-61
2023/12/11 12:17:00;;;;;;;56.83;35.27;;;7.70;99.90;;;;;;5108870;28;20283;-62
2023/12/11 12:19:32;;;;;;;57.30;35.53;;;7.70;99.90;;;;;;5108857;28;20205;-61
2023/12/11 12:22:02;;;;;;;43.50;31.83;;;7.70;99.90;;;;;;5109034;28;20205;-60
2023/12/11 12:24:31;;;;;;;49.77;32.10;;;7.50;99.90;;;;;;5110544;28;20650;-61
2023/12/11 12:27:03;;;;;;;54.57;32.90;;;7.50;99.90;;;;;;5112780;28;20287;-61
2023/12/11 12:29:34;;;;;;;51.77;32.57;;;7.50;99.90;;;;;;5112604;28;21030;-61
2023/12/11 12:32:04;;;;;;;59.60;33.10;;;7.60;99.90;;;;;;5112936;28;20691;-61
2023/12/11 12:34:34;;;;;;;53.77;36.07;;;7.60;99.90;;;;;;5112780;28;20204;-61
2023/12/11 12:37:04;;;;;;;59.53;37.00;;;7.60;99.90;;;;;;5112863;28;20203;-60
2023/12/11 12:39:33;;;;;;;62.87;43.33;;;7.50;99.90;;;;;;5112968;28;20277;-61
2023/12/11 12:42:02;;;;;;;65.63;43.73;;;7.60;99.90;;;;;;5112839;28;20227;-61
2023/12/11 12:44:30;;;;;;;73.00;46.53;;;7.50;99.90;;;;;;5112244;28;20201;-62
2023/12/11 12:47:02;;;;;;;70.20;46.97;;;7.50;99.90;;;;;;5102734;28;20197;-62
2023/12/11 12:49:33;;;;;;;75.60;49.63;;;7.40;99.90;;;;;;5107946;28;20292;-62
2023/12/11 12:52:02;;;;;;;79.20;50.37;;;7.30;99.90;;;;;;5112897;28;20200;-61
2023/12/11 12:54:48;;;;;;;78.90;49.17;;;7.30;99.90;;;;;;5112600;28;20696;-61
2023/12/11 12:57:17;;;;;;;157.77;94.23;;;7.40;99.90;;;;;;5112404;28;20205;-62
2023/12/11 12:59:47;;;;;;;144.93;85.57;;;7.50;99.90;;;;;;5111495;28;20202;-61
2023/12/11 13:02:19;;;;;;;120.17;67.17;;;7.50;99.90;;;;;;5112510;28;20698;-61
2023/12/11 13:04:51;;;;;;;91.97;55.50;;;7.60;99.90;;;;;;5112478;28;20201;-61
2023/12/11 13:07:21;;;;;;;99.07;54.77;;;7.60;99.90;;;;;;5112129;28;20196;-60
2023/12/11 13:09:51;;;;;;;90.47;52.83;;;7.50;99.90;;;;;;5112304;28;20200;-60
2023/12/11 13:12:21;;;;;;;81.73;50.20;;;7.50;99.90;;;;;;5112546;28;20266;-59
2023/12/11 13:14:50;;;;;;;78.73;50.13;;;7.50;99.90;;;;;;5111601;28;20288;-60
2023/12/11 13:17:20;;;;;;;105.73;57.70;;;7.50;99.90;;;;;;5112223;28;20591;-60
2023/12/11 13:19:49;;;;;;;96.13;56.60;;;7.50;99.90;;;;;;5112031;28;20205;-61
2023/12/11 13:22:18;;;;;;;81.47;48.47;;;7.50;99.90;;;;;;5112271;28;20563;-62
2023/12/11 13:24:46;;;;;;;83.47;45.20;;;7.40;99.90;;;;;;5111881;28;20204;-61
2023/12/11 13:27:15;;;;;;;84.53;48.67;;;7.30;99.90;;;;;;5093176;28;20301;-61
2023/12/11 13:29:44;;;;;;;138.17;96.67;;;7.30;99.90;;;;;;5111481;28;20184;-61
2023/12/11 13:32:15;;;;;;;87.40;48.97;;;7.20;99.90;;;;;;5111988;28;20612;-61
2023/12/11 13:34:45;;;;;;;69.53;40.40;;;7.20;99.90;;;;;;5111715;28;20199;-61
2023/12/11 13:37:13;;;;;;;54.97;33.93;;;7.20;99.90;;;;;;5111276;28;20255;-60
2023/12/11 13:39:42;;;;;;;64.67;39.77;;;7.20;99.90;;;;;;5111873;28;20283;-60
2023/12/11 13:42:11;;;;;;;57.07;35.13;;;7.20;99.90;;;;;;5111360;28;20225;-61
2023/12/11 13:44:40;;;;;;;35.23;24.17;;;7.20;99.90;;;;;;5110936;28;20226;-60
2023/12/11 13:47:08;;;;;;;47.00;27.53;;;7.10;99.90;;;;;;5110808;28;20198;-60
2023/12/11 13:49:37;;;;;;;45.70;29.70;;;7.10;99.90;;;;;;5110689;28;20252;-60
2023/12/11 13:52:07;;;;;;;39.93;27.57;;;7.10;99.90;;;;;;5110516;28;20196;-60
2023/12/11 13:54:36;;;;;;;44.97;26.20;;;7.10;99.90;;;;;;5110686;28;20219;-61
2023/12/11 13:57:05;;;;;;;31.87;22.63;;;7.10;99.90;;;;;;5110353;28;20205;-61
2023/12/11 13:59:34;;;;;;;37.90;25.63;;;7.10;99.90;;;;;;5110513;28;20565;-60
2023/12/11 14:02:02;;;;;;;36.30;24.40;;;7.10;99.90;;;;;;5110444;28;20231;-61
2023/12/11 14:04:31;;;;;;;31.37;21.40;;;7.10;99.90;;;;;;5102379;28;20201;-61
2023/12/11 14:07:00;;;;;;;28.57;19.90;;;7.10;99.90;;;;;;5132023;27;20210;-62
2023/12/11 14:09:32;;;;;;;32.37;22.07;;;7.00;99.90;;;;;;5114507;27;20188;-61
2023/12/11 14:12:01;;;;;;;27.33;19.33;;;7.00;99.90;;;;;;5110401;28;20200;-61
2023/12/11 14:14:30;;;;;;;30.27;20.47;;;6.90;99.90;;;;;;5110246;28;20243;-61
2023/12/11 14:16:59;;;;;;;32.77;19.83;;;6.90;99.90;;;;;;5110767;28;20216;-61
2023/12/11 14:19:30;;;;;;;31.20;20.70;;;6.80;99.90;;;;;;5110518;28;20195;-61
2023/12/11 14:21:58;;;;;;;34.33;21.83;;;6.80;99.90;;;;;;5110315;28;20224;-62
2023/12/11 14:24:28;;;;;;;39.70;24.70;;;6.80;99.90;;;;;;5110379;28;20201;-61
2023/12/11 14:26:57;;;;;;;29.83;20.53;;;6.80;99.90;;;;;;5109953;28;20197;-61
2023/12/11 14:29:26;;;;;;;33.70;20.97;;;6.80;99.90;;;;;;5110197;28;20196;-62
2023/12/11 14:31:54;;;;;;;31.77;21.67;;;6.80;99.90;;;;;;5109851;28;20210;-61
2023/12/11 14:34:23;;;;;;;37.40;21.30;;;6.80;99.90;;;;;;5110045;28;20196;-61
2023/12/11 14:36:52;;;;;;;40.13;21.70;;;6.80;99.90;;;;;;5107890;28;20193;-61
2023/12/11 14:39:23;;;;;;;35.77;22.30;;;6.70;99.90;;;;;;5089659;28;20220;-61
2023/12/11 14:41:53;;;;;;;38.13;23.30;;;6.70;99.90;;;;;;5089176;28;20255;-62
2023/12/11 14:44:21;;;;;;;37.03;21.87;;;6.70;99.90;;;;;;5089590;28;20188;-61
2023/12/11 14:46:50;;;;;;;40.07;23.03;;;6.70;99.90;;;;;;5088610;28;20272;-61
2023/12/11 14:49:19;;;;;;;45.70;24.57;;;6.70;99.90;;;;;;5089537;28;20265;-61
2023/12/11 14:51:48;;;;;;;55.77;25.03;;;6.70;99.90;;;;;;5092455;28;20193;-61
2023/12/11 14:54:17;;;;;;;61.07;27.60;;;6.70;99.90;;;;;;5089448;28;20201;-61
2023/12/11 14:56:45;;;;;;;55.53;35.63;;;6.70;99.90;;;;;;5123764;27;20691;-60
2023/12/11 14:59:16;;;;;;;58.10;28.30;;;6.60;99.90;;;;;;5130308;27;20196;-61
2023/12/11 15:01:47;;;;;;;41.97;25.97;;;6.60;99.90;;;;;;5130012;27;20403;-61
2023/12/11 15:04:16;;;;;;;59.33;31.13;;;6.60;99.90;;;;;;5130304;27;20290;-61
2023/12/11 15:06:45;;;;;;;50.13;28.53;;;6.50;99.90;;;;;;5129309;27;20590;-61
2023/12/11 15:09:15;;;;;;;53.40;29.80;;;6.50;99.90;;;;;;5122731;27;20203;-61
2023/12/11 15:11:44;;;;;;;46.13;27.07;;;6.50;99.90;;;;;;5150561;27;20226;-61
2023/12/11 15:14:12;;;;;;;40.27;24.87;;;6.50;99.90;;;;;;5150831;27;20656;-61
2023/12/11 15:16:45;;;;;;;33.20;22.00;;;6.50;99.90;;;;;;5150488;27;20213;-61
2023/12/11 15:19:14;;;;;;;41.60;24.20;;;6.50;99.90;;;;;;5151082;27;20196;-62
2023/12/11 15:21:42;;;;;;;49.03;24.83;;;6.50;99.90;;;;;;5150663;27;20218;-61
2023/12/11 15:24:11;;;;;;;54.37;28.87;;;6.50;99.90;;;;;;5150689;27;20198;-61
2023/12/11 15:26:40;;;;;;;67.30;32.13;;;6.50;99.90;;;;;;5133509;27;20208;-60
2023/12/11 15:29:09;;;;;;;52.37;27.07;;;6.50;99.90;;;;;;5128424;27;20282;-61
2023/12/11 15:31:38;;;;;;;33.77;23.03;;;6.40;99.90;;;;;;5129688;27;20318;-60
2023/12/11 15:34:08;;;;;;;32.37;20.63;;;6.50;99.90;;;;;;5126518;27;20224;-62
2023/12/11 15:36:36;;;;;;;31.07;22.10;;;6.40;99.90;;;;;;5120294;27;20192;-60
2023/12/11 15:39:07;;;;;;;32.87;22.97;;;6.40;99.90;;;;;;5126934;27;20321;-61
2023/12/11 15:41:36;;;;;;;34.63;22.03;;;6.30;99.90;;;;;;5130876;27;20433;-60
2023/12/11 15:44:05;;;;;;;35.90;22.17;;;6.30;99.90;;;;;;5114772;28;20201;-60
2023/12/11 15:46:34;;;;;;;37.77;23.13;;;6.30;99.90;;;;;;5108047;28;20198;-60
2023/12/11 15:49:03;;;;;;;37.67;24.23;;;6.40;99.90;;;;;;5108198;28;20195;-61
2023/12/11 15:51:33;;;;;;;39.00;25.37;;;6.40;99.90;;;;;;5112231;28;20540;-61
2023/12/11 15:54:02;;;;;;;39.63;23.13;;;6.40;99.90;;;;;;5095363;28;20212;-60
2023/12/11 15:56:31;;;;;;;32.07;21.27;;;6.30;99.90;;;;;;5108764;28;20606;-61
2023/12/11 15:59:00;;;;;;;28.77;20.07;;;6.30;99.90;;;;;;5108916;28;20207;-60
2023/12/11 16:01:29;;;;;;;33.27;22.00;;;6.30;99.90;;;;;;5112253;28;20200;-60
2023/12/11 16:03:58;;;;;;;36.00;22.30;;;6.20;99.90;;;;;;5112526;28;20985;-60
2023/12/11 16:06:28;;;;;;;35.30;21.50;;;6.20;99.90;;;;;;5112089;28;20223;-59
2023/12/11 16:08:58;;;;;;;31.87;22.33;;;6.20;99.90;;;;;;5130277;27;20298;-61
2023/12/11 16:11:30;;;;;;;39.67;23.20;;;6.30;99.90;;;;;;5133117;27;20212;-59
2023/12/11 16:13:59;;;;;;;35.67;21.90;;;6.30;99.90;;;;;;5133121;27;20205;-59
2023/12/11 16:16:27;;;;;;;34.40;22.67;;;6.20;99.90;;;;;;5132710;27;20207;-60
2023/12/11 16:18:56;;;;;;;33.80;22.17;;;6.20;99.90;;;;;;5132898;27;20268;-59
2023/12/11 16:21:25;;;;;;;36.77;22.53;;;6.20;99.90;;;;;;5132925;27;20291;-59
2023/12/11 16:23:53;;;;;;;36.93;23.20;;;6.20;99.90;;;;;;5132961;27;20199;-59
2023/12/11 16:26:24;;;;;;;35.70;23.07;;;6.20;99.90;;;;;;5132869;27;20227;-60
2023/12/11 16:28:53;;;;;;;35.80;25.23;;;6.20;99.90;;;;;;5132900;27;20208;-59
2023/12/11 16:31:22;;;;;;;40.70;25.03;;;6.20;99.90;;;;;;5132557;27;20286;-59
2023/12/11 16:33:51;;;;;;;39.00;25.53;;;6.20;99.90;;;;;;5132162;27;20207;-58
2023/12/11 16:36:20;;;;;;;40.90;25.60;;;6.20;99.90;;;;;;5132609;27;20204;-59
2023/12/11 16:38:49;;;;;;;43.77;27.20;;;6.20;99.90;;;;;;5131944;27;20233;-61
2023/12/11 16:41:28;;;;;;;67.10;41.27;;;6.10;99.90;;;;;;5132298;27;20199;-60
2023/12/11 16:43:57;;;;;;;42.00;28.73;;;6.10;99.90;;;;;;5132493;27;20648;-60
2023/12/11 16:46:26;;;;;;;44.27;28.77;;;6.10;99.90;;;;;;5127866;27;20203;-59
2023/12/11 16:48:55;;;;;;;48.60;31.23;;;6.10;99.90;;;;;;5113642;27;20207;-60
2023/12/11 16:51:24;;;;;;;47.33;29.53;;;6.10;99.90;;;;;;5132248;27;20195;-60
2023/12/11 16:53:52;;;;;;;43.23;28.97;;;6.10;99.90;;;;;;5132292;27;20199;-60
2023/12/11 16:56:21;;;;;;;43.33;28.50;;;6.10;99.90;;;;;;5131972;27;20756;-59
2023/12/11 16:58:51;;;;;;;45.33;29.60;;;6.00;99.90;;;;;;5102810;28;20207;-59
2023/12/11 17:01:20;;;;;;;45.47;28.57;;;6.10;99.90;;;;;;5129370;27;20207;-61
2023/12/11 17:03:48;;;;;;;49.33;30.20;;;6.10;99.90;;;;;;5131134;27;20237;-61
2023/12/11 17:06:18;;;;;;;45.33;28.83;;;6.00;99.90;;;;;;5131912;27;20202;-61
2023/12/11 17:08:47;;;;;;;48.60;29.03;;;6.10;99.90;;;;;;5131607;27;20195;-59
2023/12/11 17:11:15;;;;;;;46.13;30.43;;;6.00;99.90;;;;;;5131365;27;20274;-60
2023/12/11 17:13:44;;;;;;;51.63;32.87;;;6.00;99.90;;;;;;5131759;27;20247;-61
2023/12/11 17:16:14;;;;;;;48.60;31.43;;;6.00;99.90;;;;;;5131447;27;20633;-61
2023/12/11 17:18:43;;;;;;;48.83;30.93;;;6.00;99.90;;;;;;5131198;27;20187;-59
2023/12/11 17:21:13;;;;;;;45.37;30.03;;;6.10;99.90;;;;;;5131239;27;20290;-59
2023/12/11 17:23:45;;;;;;;48.53;31.20;;;6.00;99.90;;;;;;5131460;27;20219;-59
2023/12/11 17:26:14;;;;;;;47.23;30.37;;;6.10;99.90;;;;;;5131532;27;20263;-60
2023/12/11 17:28:43;;;;;;;50.17;32.07;;;6.10;99.90;;;;;;5131658;27;20199;-60
2023/12/11 17:31:12;;;;;;;49.87;32.67;;;6.10;99.90;;;;;;5131573;27;20206;-61
2023/12/11 17:33:42;;;;;;;51.53;33.77;;;6.00;99.90;;;;;;5131242;27;20554;-60
2023/12/11 17:36:11;;;;;;;51.87;32.33;;;6.00;99.90;;;;;;5131781;27;20199;-60
2023/12/11 17:38:40;;;;;;;57.63;35.60;;;6.00;99.90;;;;;;5131262;27;20354;-60
2023/12/11 17:41:09;;;;;;;51.53;34.40;;;6.00;99.90;;;;;;5131249;27;20195;-59
2023/12/11 17:43:37;;;;;;;52.27;34.20;;;6.00;99.90;;;;;;5131584;27;20218;-60
2023/12/11 17:46:06;;;;;;;52.73;33.20;;;6.00;99.90;;;;;;5131159;27;20211;-59
2023/12/11 17:48:36;;;;;;;53.13;35.07;;;6.00;99.90;;;;;;5113282;27;20195;-59
2023/12/11 17:51:07;;;;;;;55.67;34.07;;;6.00;99.90;;;;;;5131205;27;20190;-59
2023/12/11 17:53:37;;;;;;;61.47;37.03;;;6.00;99.90;;;;;;5131325;27;20673;-60
2023/12/11 17:56:09;;;;;;;59.73;37.30;;;6.00;99.90;;;;;;5131119;27;20199;-59
2023/12/11 17:58:38;;;;;;;53.87;36.33;;;5.90;99.90;;;;;;5131272;27;20274;-61
2023/12/11 18:01:07;;;;;;;58.67;37.17;;;6.00;99.90;;;;;;5125946;27;20268;-60
2023/12/11 18:03:36;;;;;;;55.80;35.23;;;6.00;99.90;;;;;;5111705;27;20221;-59
2023/12/11 18:06:07;;;;;;;56.80;35.50;;;6.00;99.90;;;;;;5114906;27;20252;-59
2023/12/11 18:08:35;;;;;;;57.50;35.97;;;6.00;99.90;;;;;;5124765;27;20199;-59
2023/12/11 18:11:04;;;;;;;55.43;35.13;;;6.00;99.90;;;;;;5131104;27;20191;-59
2023/12/11 18:13:33;;;;;;;60.07;34.43;;;6.00;99.90;;;;;;5126445;27;20204;-59
2023/12/11 18:16:01;;;;;;;55.60;33.97;;;6.10;99.90;;;;;;5130359;27;20278;-59
2023/12/11 18:18:30;;;;;;;52.77;31.80;;;6.10;99.90;;;;;;5130541;27;20195;-59
2023/12/11 18:20:58;;;;;;;51.43;29.80;;;6.10;99.90;;;;;;5130536;27;20191;-60
2023/12/11 18:23:29;;;;;;;57.07;35.20;;;6.10;99.90;;;;;;5129886;27;20263;-59
2023/12/11 18:25:57;;;;;;;61.07;34.47;;;6.20;99.90;;;;;;5130727;27;20180;-60
2023/12/11 18:28:26;;;;;;;65.13;36.07;;;6.20;99.90;;;;;;5130612;27;20195;-60
2023/12/11 18:30:54;;;;;;;62.20;36.40;;;6.10;99.90;;;;;;5129825;27;20196;-61
2023/12/11 18:33:23;;;;;;;61.60;36.80;;;6.10;99.90;;;;;;5129993;27;20311;-59
2023/12/11 18:35:52;;;;;;;64.77;36.57;;;6.10;99.90;;;;;;5130502;27;20200;-62
2023/12/11 18:38:21;;;;;;;73.67;40.67;;;6.20;99.90;;;;;;5129898;27;20789;-61
2023/12/11 18:40:51;;;;;;;54.80;33.20;;;6.10;99.90;;;;;;5130164;27;20203;-63
2023/12/11 18:43:20;;;;;;;52.50;32.03;;;6.10;99.90;;;;;;5130146;27;20294;-61
2023/12/11 18:45:49;;;;;;;54.63;33.87;;;6.10;99.90;;;;;;5129664;27;20187;-60
2023/12/11 18:48:18;;;;;;;46.80;29.60;;;6.10;99.90;;;;;;5129819;27;20219;-60
2023/12/11 18:50:46;;;;;;;50.30;30.20;;;6.10;99.90;;;;;;5130293;27;20302;-60
2023/12/11 18:53:15;;;;;;;49.47;29.07;;;6.10;99.90;;;;;;5130148;27;20681;-61
2023/12/11 18:55:44;;;;;;;43.93;26.87;;;6.00;99.90;;;;;;5129871;27;20187;-60
2023/12/11 18:58:29;;;;;;;46.17;27.87;;;6.10;99.90;;;;;;5129642;27;20259;-60
2023/12/11 19:00:59;;;;;;;51.00;28.47;;;6.10;99.90;;;;;;5129484;27;20205;-61
2023/12/11 19:03:28;;;;;;;46.60;28.67;;;6.20;99.90;;;;;;5129517;27;20784;-60
2023/12/11 19:05:57;;;;;;;56.63;31.73;;;6.20;99.90;;;;;;5129975;27;20282;-60
2023/12/11 19:08:25;;;;;;;54.90;32.03;;;6.10;99.90;;;;;;5129717;27;20195;-59
2023/12/11 19:10:54;;;;;;;57.27;33.90;;;6.10;99.90;;;;;;5129749;27;20203;-60
2023/12/11 19:13:23;;;;;;;52.30;32.27;;;6.10;99.90;;;;;;5129137;27;20276;-60
2023/12/11 19:15:53;;;;;;;57.90;34.80;;;6.10;99.90;;;;;;5130095;27;20198;-60
2023/12/11 19:18:22;;;;;;;84.73;42.20;;;6.20;99.90;;;;;;5129829;27;20199;-60
2023/12/11 19:20:53;;;;;;;64.87;37.83;;;6.10;99.90;;;;;;5129770;27;20195;-60
2023/12/11 19:23:21;;;;;;;79.53;42.47;;;6.20;99.90;;;;;;5129803;27;20187;-60
2023/12/11 19:25:51;;;;;;;79.97;42.37;;;6.10;99.90;;;;;;5129739;27;20711;-60
2023/12/11 19:28:20;;;;;;;69.17;38.87;;;6.10;99.90;;;;;;5129033;27;20199;-60
2023/12/11 19:30:49;;;;;;;70.03;40.43;;;6.00;99.90;;;;;;5129546;27;20217;-60
2023/12/11 19:33:20;;;;;;;72.03;40.07;;;5.90;99.90;;;;;;5129269;27;20730;-60
2023/12/11 19:35:50;;;;;;;73.43;39.10;;;5.90;99.90;;;;;;5129619;27;20560;-60
2023/12/11 19:38:18;;;;;;;69.50;37.27;;;5.90;99.90;;;;;;5129122;27;20223;-60
2023/12/11 19:42:31;;;;;;;66.47;34.30;;;7.20;99.90;;;;;;5146766;27;20284;-65
2023/12/11 19:45:00;;;;;;;69.30;38.20;;;7.50;99.90;;;;;;5147388;27;20235;-65
2023/12/11 19:47:28;;;;;;;97.40;47.90;;;7.10;99.90;;;;;;5147738;27;20206;-66
2023/12/11 19:49:57;;;;;;;88.23;43.20;;;6.90;99.90;;;;;;5147787;27;20578;-66
2023/12/11 19:52:26;;;;;;;83.27;44.20;;;6.60;99.90;;;;;;5147533;27;20652;-64
2023/12/11 19:54:55;;;;;;;89.87;45.00;;;6.40;99.90;;;;;;5147576;27;20220;-65
2023/12/11 19:57:23;;;;;;;103.43;49.17;;;6.40;99.90;;;;;;5147287;27;20259;-62
2023/12/11 19:59:53;;;;;;;113.80;52.07;;;6.40;99.90;;;;;;5147712;27;20208;-65
2023/12/11 20:02:22;;;;;;;127.13;55.43;;;6.40;99.90;;;;;;5147565;27;20226;-66
2023/12/11 20:04:50;;;;;;;150.73;57.87;;;6.40;99.90;;;;;;5147599;27;20275;-63
2023/12/11 20:07:19;;;;;;;107.00;46.63;;;6.50;99.90;;;;;;5147610;27;20244;-63
2023/12/11 20:09:48;;;;;;;120.57;44.27;;;6.40;99.90;;;;;;5147376;27;20274;-59
2023/12/11 20:12:16;;;;;;;88.53;42.60;;;6.40;99.90;;;;;;5146602;27;20718;-63
2023/12/11 20:14:46;;;;;;;91.10;40.20;;;6.30;99.90;;;;;;5147039;27;20646;-61
2023/12/11 20:17:18;;;;;;;84.83;38.67;;;6.30;99.90;;;;;;5147181;27;20619;-61
2023/12/11 20:19:48;;;;;;;80.10;36.30;;;6.30;99.90;;;;;;5146862;27;20195;-63
2023/12/11 20:22:16;;;;;;;94.00;40.63;;;6.40;99.90;;;;;;5147163;27;20845;-61
2023/12/11 20:24:45;;;;;;;93.73;42.80;;;6.40;99.90;;;;;;5147104;27;20194;-64
2023/12/11 20:27:14;;;;;;;93.40;42.53;;;6.30;99.90;;;;;;5146414;27;20206;-62
2023/12/11 20:29:42;;;;;;;100.57;42.93;;;6.30;99.90;;;;;;5146961;27;20209;-62